sensor_id;sensor_type;location;lat;lon;timestamp;P1;durP1;ratioP1;P2;durP2;ratioP2
15814;SDS011;8008;50.024;8.172;2023-07-24T03:02:59;3.33;;;2.17;;
15814;SDS011;8008;50.024;8.172;2023-07-24T03:05:27;2.10;;;1.90;;
15814;SDS011;8008;50.024;8.172;2023-07-24T03:07:55;2.85;;;2.20;;
15814;SDS011;8008;50.024;8.172;2023-07-24T03:10:23;2.40;;;2.20;;
15814;SDS011;8008;50.024;8.172;2023-07-24T03:12:51;3.75;;;2.03;;
15814;SDS011;8008;50.024;8.172;2023-07-24T03:15:19;3.75;;;2.10;;
15814;SDS011;8008;50.024;8.172;2023-07-24T03:17:48;4.50;;;2.10;;
15814;SDS011;8008;50.024;8.172;2023-07-24T03:20:17;4.45;;;2.20;;
15814;SDS011;8008;50.024;8.172;2023-07-24T03:22:47;2.40;;;2.15;;
15814;SDS011;8008;50.024;8.172;2023-07-24T03:25:15;2.53;;;2.05;;
15814;SDS011;8008;50.024;8.172;2023-07-24T03:27:43;2.38;;;2.00;;
15814;SDS011;8008;50.024;8.172;2023-07-24T03:30:11;3.08;;;2.13;;
15814;SDS011;8008;50.024;8.172;2023-07-24T03:32:39;3.08;;;2.03;;
15814;SDS011;8008;50.024;8.172;2023-07-24T03:35:07;3.05;;;2.13;;
15814;SDS011;8008;50.024;8.172;2023-07-24T03:37:37;3.35;;;2.25;;
15814;SDS011;8008;50.024;8.172;2023-07-24T03:40:06;4.63;;;2.20;;
15814;SDS011;8008;50.024;8.172;2023-07-24T03:42:35;3.80;;;2.30;;
15814;SDS011;8008;50.024;8.172;2023-07-24T03:45:03;2.78;;;2.20;;
15814;SDS011;8008;50.024;8.172;2023-07-24T03:47:33;2.45;;;2.08;;
15814;SDS011;8008;50.024;8.172;2023-07-24T03:50:01;2.50;;;2.20;;
15814;SDS011;8008;50.024;8.172;2023-07-24T03:52:30;2.92;;;2.30;;
15814;SDS011;8008;50.024;8.172;2023-07-24T03:54:59;5.82;;;2.60;;
15814;SDS011;8008;50.024;8.172;2023-07-24T03:57:27;3.65;;;2.65;;
15814;SDS011;8008;50.024;8.172;2023-07-24T03:59:55;2.65;;;2.40;;
15814;SDS011;8008;50.024;8.172;2023-07-24T04:02:23;2.88;;;2.55;;
15814;SDS011;8008;50.024;8.172;2023-07-24T04:04:51;4.20;;;2.33;;
15814;SDS011;8008;50.024;8.172;2023-07-24T04:07:19;4.13;;;2.40;;
15814;SDS011;8008;50.024;8.172;2023-07-24T04:09:47;4.53;;;2.30;;
15814;SDS011;8008;50.024;8.172;2023-07-24T04:12:17;2.80;;;2.20;;
15814;SDS011;8008;50.024;8.172;2023-07-24T04:14:45;3.40;;;2.30;;
15814;SDS011;8008;50.024;8.172;2023-07-24T04:17:15;2.85;;;2.35;;
15814;SDS011;8008;50.024;8.172;2023-07-24T04:19:43;3.15;;;2.00;;
15814;SDS011;8008;50.024;8.172;2023-07-24T04:22:11;2.88;;;2.20;;
15814;SDS011;8008;50.024;8.172;2023-07-24T04:24:39;2.75;;;2.10;;
15814;SDS011;8008;50.024;8.172;2023-07-24T04:27:07;2.55;;;2.00;;
15814;SDS011;8008;50.024;8.172;2023-07-24T04:29:36;2.30;;;2.10;;
15814;SDS011;8008;50.024;8.172;2023-07-24T04:32:05;3.92;;;2.08;;
15814;SDS011;8008;50.024;8.172;2023-07-24T04:34:33;2.95;;;2.42;;
15814;SDS011;8008;50.024;8.172;2023-07-24T04:37:01;4.10;;;2.28;;
15814;SDS011;8008;50.024;8.172;2023-07-24T04:39:30;4.55;;;2.30;;
15814;SDS011;8008;50.024;8.172;2023-07-24T04:41:59;3.38;;;2.50;;
15814;SDS011;8008;50.024;8.172;2023-07-24T04:44:27;4.38;;;2.17;;
15814;SDS011;8008;50.024;8.172;2023-07-24T04:46:57;2.33;;;2.10;;
15814;SDS011;8008;50.024;8.172;2023-07-24T04:49:25;3.33;;;2.05;;
15814;SDS011;8008;50.024;8.172;2023-07-24T04:51:55;4.50;;;2.33;;
15814;SDS011;8008;50.024;8.172;2023-07-24T04:54:23;3.00;;;2.47;;
15814;SDS011;8008;50.024;8.172;2023-07-24T04:56:51;4.80;;;2.45;;
15814;SDS011;8008;50.024;8.172;2023-07-24T04:59:19;4.82;;;2.67;;
15814;SDS011;8008;50.024;8.172;2023-07-24T05:01:47;2.47;;;2.10;;
15814;SDS011;8008;50.024;8.172;2023-07-24T05:04:16;2.47;;;2.13;;
15814;SDS011;8008;50.024;8.172;2023-07-24T05:06:45;2.80;;;2.53;;
15814;SDS011;8008;50.024;8.172;2023-07-24T05:09:13;3.70;;;2.38;;
15814;SDS011;8008;50.024;8.172;2023-07-24T05:11:41;3.90;;;2.53;;
15814;SDS011;8008;50.024;8.172;2023-07-24T05:14:11;4.18;;;2.40;;
15814;SDS011;8008;50.024;8.172;2023-07-24T05:16:39;3.03;;;2.22;;
15814;SDS011;8008;50.024;8.172;2023-07-24T05:19:07;4.30;;;2.30;;
15814;SDS011;8008;50.024;8.172;2023-07-24T05:21:36;3.20;;;1.95;;
15814;SDS011;8008;50.024;8.172;2023-07-24T05:24:04;2.60;;;2.40;;
15814;SDS011;8008;50.024;8.172;2023-07-24T05:26:32;3.88;;;2.60;;
15814;SDS011;8008;50.024;8.172;2023-07-24T05:29:00;2.22;;;2.03;;
15814;SDS011;8008;50.024;8.172;2023-07-24T05:31:28;3.47;;;2.30;;
15814;SDS011;8008;50.024;8.172;2023-07-24T05:33:56;4.88;;;2.47;;
15814;SDS011;8008;50.024;8.172;2023-07-24T05:36:24;5.38;;;2.63;;
15814;SDS011;8008;50.024;8.172;2023-07-24T05:38:54;2.58;;;2.13;;
15814;SDS011;8008;50.024;8.172;2023-07-24T05:41:22;4.47;;;2.28;;
15814;SDS011;8008;50.024;8.172;2023-07-24T05:43:50;2.83;;;2.22;;
15814;SDS011;8008;50.024;8.172;2023-07-24T05:46:18;4.05;;;2.60;;
15814;SDS011;8008;50.024;8.172;2023-07-24T05:48:46;2.40;;;2.20;;
15814;SDS011;8008;50.024;8.172;2023-07-24T05:51:15;4.45;;;2.13;;
15814;SDS011;8008;50.024;8.172;2023-07-24T05:53:43;3.17;;;2.28;;
15814;SDS011;8008;50.024;8.172;2023-07-24T05:56:12;3.00;;;2.30;;
15814;SDS011;8008;50.024;8.172;2023-07-24T05:58:40;4.97;;;2.53;;
15814;SDS011;8008;50.024;8.172;2023-07-24T06:01:08;3.40;;;2.42;;
15814;SDS011;8008;50.024;8.172;2023-07-24T06:03:37;2.55;;;2.35;;
15814;SDS011;8008;50.024;8.172;2023-07-24T06:06:05;4.10;;;2.50;;
15814;SDS011;8008;50.024;8.172;2023-07-24T06:08:33;2.70;;;2.25;;
15814;SDS011;8008;50.024;8.172;2023-07-24T06:11:01;3.17;;;2.38;;
15814;SDS011;8008;50.024;8.172;2023-07-24T06:13:31;2.67;;;2.35;;
15814;SDS011;8008;50.024;8.172;2023-07-24T06:15:59;4.40;;;2.40;;
15814;SDS011;8008;50.024;8.172;2023-07-24T06:18:27;5.30;;;2.22;;
15814;SDS011;8008;50.024;8.172;2023-07-24T06:20:55;4.38;;;2.30;;
15814;SDS011;8008;50.024;8.172;2023-07-24T06:23:23;6.43;;;2.15;;
15814;SDS011;8008;50.024;8.172;2023-07-24T06:25:51;3.60;;;2.50;;
15814;SDS011;8008;50.024;8.172;2023-07-24T06:28:20;5.53;;;2.42;;
15814;SDS011;8008;50.024;8.172;2023-07-24T06:30:49;2.67;;;2.13;;
15814;SDS011;8008;50.024;8.172;2023-07-24T06:33:19;3.90;;;2.50;;
15814;SDS011;8008;50.024;8.172;2023-07-24T06:35:48;2.63;;;2.10;;
15814;SDS011;8008;50.024;8.172;2023-07-24T06:38:17;3.20;;;2.55;;
15814;SDS011;8008;50.024;8.172;2023-07-24T06:40:47;3.40;;;2.30;;
15814;SDS011;8008;50.024;8.172;2023-07-24T06:43:15;3.20;;;2.10;;
15814;SDS011;8008;50.024;8.172;2023-07-24T06:45:43;2.85;;;2.40;;
15814;SDS011;8008;50.024;8.172;2023-07-24T06:48:13;2.50;;;2.30;;
15814;SDS011;8008;50.024;8.172;2023-07-24T06:50:41;5.25;;;2.28;;
15814;SDS011;8008;50.024;8.172;2023-07-24T06:53:09;4.90;;;2.17;;
15814;SDS011;8008;50.024;8.172;2023-07-24T06:55:37;3.00;;;2.50;;
15814;SDS011;8008;50.024;8.172;2023-07-24T06:58:05;2.95;;;2.53;;
15814;SDS011;8008;50.024;8.172;2023-07-24T07:00:33;3.00;;;2.53;;
15814;SDS011;8008;50.024;8.172;2023-07-24T07:03:01;3.10;;;2.30;;
15814;SDS011;8008;50.024;8.172;2023-07-24T07:05:30;3.67;;;2.20;;
15814;SDS011;8008;50.024;8.172;2023-07-24T07:07:59;3.55;;;2.30;;
15814;SDS011;8008;50.024;8.172;2023-07-24T07:10:27;3.70;;;2.15;;
15814;SDS011;8008;50.024;8.172;2023-07-24T07:12:55;3.97;;;2.38;;
15814;SDS011;8008;50.024;8.172;2023-07-24T07:15:23;3.60;;;2.20;;
15814;SDS011;8008;50.024;8.172;2023-07-24T07:17:51;3.13;;;2.53;;
15814;SDS011;8008;50.024;8.172;2023-07-24T07:20:19;2.85;;;2.40;;
15814;SDS011;8008;50.024;8.172;2023-07-24T07:22:49;3.92;;;2.63;;
15814;SDS011;8008;50.024;8.172;2023-07-24T07:25:17;3.10;;;2.60;;
15814;SDS011;8008;50.024;8.172;2023-07-24T07:27:45;3.15;;;2.53;;
15814;SDS011;8008;50.024;8.172;2023-07-24T07:30:13;4.05;;;2.30;;
15814;SDS011;8008;50.024;8.172;2023-07-24T07:32:43;4.35;;;2.40;;
15814;SDS011;8008;50.024;8.172;2023-07-24T07:35:11;7.00;;;2.80;;
15814;SDS011;8008;50.024;8.172;2023-07-24T07:37:39;4.47;;;2.40;;
15814;SDS011;8008;50.024;8.172;2023-07-24T07:40:10;2.75;;;2.22;;
15814;SDS011;8008;50.024;8.172;2023-07-24T07:42:39;2.83;;;2.20;;
15814;SDS011;8008;50.024;8.172;2023-07-24T07:45:10;2.35;;;2.15;;
15814;SDS011;8008;50.024;8.172;2023-07-24T07:47:38;2.50;;;2.13;;
15814;SDS011;8008;50.024;8.172;2023-07-24T07:50:06;3.03;;;2.53;;
15814;SDS011;8008;50.024;8.172;2023-07-24T07:52:35;3.58;;;2.20;;
15814;SDS011;8008;50.024;8.172;2023-07-24T07:55:03;2.75;;;2.50;;
15814;SDS011;8008;50.024;8.172;2023-07-24T07:57:35;3.50;;;2.45;;
15814;SDS011;8008;50.024;8.172;2023-07-24T08:00:03;3.60;;;2.70;;
15814;SDS011;8008;50.024;8.172;2023-07-24T08:02:33;3.13;;;2.40;;
15814;SDS011;8008;50.024;8.172;2023-07-24T08:05:01;4.55;;;2.80;;
15814;SDS011;8008;50.024;8.172;2023-07-24T08:07:45;3.60;;;2.60;;
15814;SDS011;8008;50.024;8.172;2023-07-24T08:10:13;3.35;;;2.67;;
15814;SDS011;8008;50.024;8.172;2023-07-24T08:12:44;4.28;;;2.70;;
15814;SDS011;8008;50.024;8.172;2023-07-24T08:15:12;3.28;;;2.58;;
15814;SDS011;8008;50.024;8.172;2023-07-24T08:17:40;4.00;;;2.70;;
15814;SDS011;8008;50.024;8.172;2023-07-24T08:20:08;4.00;;;2.80;;
15814;SDS011;8008;50.024;8.172;2023-07-24T08:22:37;4.03;;;2.80;;
15814;SDS011;8008;50.024;8.172;2023-07-24T08:25:05;4.68;;;2.70;;
15814;SDS011;8008;50.024;8.172;2023-07-24T08:27:34;4.47;;;2.60;;
15814;SDS011;8008;50.024;8.172;2023-07-24T08:30:23;2.80;;;2.53;;
15814;SDS011;8008;50.024;8.172;2023-07-24T08:32:52;3.03;;;2.67;;
15814;SDS011;8008;50.024;8.172;2023-07-24T08:35:20;2.90;;;2.60;;
15814;SDS011;8008;50.024;8.172;2023-07-24T08:37:48;3.10;;;2.70;;
15814;SDS011;8008;50.024;8.172;2023-07-24T08:40:16;3.35;;;2.85;;
15814;SDS011;8008;50.024;8.172;2023-07-24T08:42:44;3.63;;;2.65;;
15814;SDS011;8008;50.024;8.172;2023-07-24T08:45:16;5.75;;;2.80;;
15814;SDS011;8008;50.024;8.172;2023-07-24T08:47:46;4.20;;;2.83;;
15814;SDS011;8008;50.024;8.172;2023-07-24T08:50:15;3.65;;;2.78;;
15814;SDS011;8008;50.024;8.172;2023-07-24T08:52:45;5.18;;;3.10;;
15814;SDS011;8008;50.024;8.172;2023-07-24T08:55:13;5.40;;;2.95;;
15814;SDS011;8008;50.024;8.172;2023-07-24T08:57:42;4.55;;;3.00;;
15814;SDS011;8008;50.024;8.172;2023-07-24T09:00:10;3.13;;;2.80;;
15814;SDS011;8008;50.024;8.172;2023-07-24T09:02:40;5.63;;;2.88;;
15814;SDS011;8008;50.024;8.172;2023-07-24T09:05:09;6.25;;;3.00;;
15814;SDS011;8008;50.024;8.172;2023-07-24T09:07:38;3.38;;;2.95;;
15814;SDS011;8008;50.024;8.172;2023-07-24T09:10:07;3.25;;;2.63;;
15814;SDS011;8008;50.024;8.172;2023-07-24T09:12:37;3.78;;;2.50;;
15814;SDS011;8008;50.024;8.172;2023-07-24T09:15:10;3.45;;;2.58;;
15814;SDS011;8008;50.024;8.172;2023-07-24T09:17:46;5.90;;;2.88;;
15814;SDS011;8008;50.024;8.172;2023-07-24T09:20:17;3.10;;;2.63;;
15814;SDS011;8008;50.024;8.172;2023-07-24T09:22:57;4.25;;;2.88;;
15814;SDS011;8008;50.024;8.172;2023-07-24T09:25:31;3.30;;;2.47;;
15814;SDS011;8008;50.024;8.172;2023-07-24T09:28:01;4.28;;;2.85;;
15814;SDS011;8008;50.024;8.172;2023-07-24T09:30:37;4.85;;;2.75;;
15814;SDS011;8008;50.024;8.172;2023-07-24T09:33:05;2.65;;;2.45;;
15814;SDS011;8008;50.024;8.172;2023-07-24T09:35:34;2.72;;;2.47;;
15814;SDS011;8008;50.024;8.172;2023-07-24T09:38:05;4.00;;;2.60;;
15814;SDS011;8008;50.024;8.172;2023-07-24T09:40:38;3.60;;;2.67;;
15814;SDS011;8008;50.024;8.172;2023-07-24T09:43:16;5.22;;;3.30;;
15814;SDS011;8008;50.024;8.172;2023-07-24T09:46:05;2.88;;;2.47;;
15814;SDS011;8008;50.024;8.172;2023-07-24T09:48:35;3.55;;;2.50;;
15814;SDS011;8008;50.024;8.172;2023-07-24T09:51:08;3.20;;;2.70;;
15814;SDS011;8008;50.024;8.172;2023-07-24T09:53:39;3.10;;;2.78;;
15814;SDS011;8008;50.024;8.172;2023-07-24T09:56:14;3.20;;;2.83;;
15814;SDS011;8008;50.024;8.172;2023-07-24T09:58:44;3.47;;;2.90;;
15814;SDS011;8008;50.024;8.172;2023-07-24T10:01:15;3.30;;;3.00;;
15814;SDS011;8008;50.024;8.172;2023-07-24T10:03:45;4.60;;;2.75;;
15814;SDS011;8008;50.024;8.172;2023-07-24T10:06:17;3.92;;;3.10;;
15814;SDS011;8008;50.024;8.172;2023-07-24T10:08:45;4.45;;;3.33;;
15814;SDS011;8008;50.024;8.172;2023-07-24T10:11:13;7.60;;;3.40;;
15814;SDS011;8008;50.024;8.172;2023-07-24T10:13:41;4.13;;;3.08;;
15814;SDS011;8008;50.024;8.172;2023-07-24T10:16:10;3.72;;;3.20;;
15814;SDS011;8008;50.024;8.172;2023-07-24T10:18:41;4.20;;;3.42;;
15814;SDS011;8008;50.024;8.172;2023-07-24T10:21:12;6.35;;;3.40;;
15814;SDS011;8008;50.024;8.172;2023-07-24T10:23:42;4.80;;;3.40;;
15814;SDS011;8008;50.024;8.172;2023-07-24T10:26:13;6.05;;;3.40;;
15814;SDS011;8008;50.024;8.172;2023-07-24T10:28:42;4.18;;;3.35;;
15814;SDS011;8008;50.024;8.172;2023-07-24T10:31:19;6.28;;;3.50;;
15814;SDS011;8008;50.024;8.172;2023-07-24T10:33:49;5.07;;;3.70;;
15814;SDS011;8008;50.024;8.172;2023-07-24T10:36:19;4.10;;;3.42;;
15814;SDS011;8008;50.024;8.172;2023-07-24T10:38:53;5.90;;;3.70;;
15814;SDS011;8008;50.024;8.172;2023-07-24T10:41:22;4.90;;;3.80;;
15814;SDS011;8008;50.024;8.172;2023-07-24T10:44:02;5.72;;;4.22;;
15814;SDS011;8008;50.024;8.172;2023-07-24T10:46:35;4.40;;;3.65;;
15814;SDS011;8008;50.024;8.172;2023-07-24T10:49:04;5.00;;;3.58;;
15814;SDS011;8008;50.024;8.172;2023-07-24T10:51:32;4.50;;;3.88;;
15814;SDS011;8008;50.024;8.172;2023-07-24T10:54:03;5.85;;;3.67;;
15814;SDS011;8008;50.024;8.172;2023-07-24T10:56:31;5.75;;;3.83;;
15814;SDS011;8008;50.024;8.172;2023-07-24T10:59:02;4.00;;;3.60;;
15814;SDS011;8008;50.024;8.172;2023-07-24T11:01:31;4.53;;;3.65;;
15814;SDS011;8008;50.024;8.172;2023-07-24T11:04:01;4.75;;;3.40;;
15814;SDS011;8008;50.024;8.172;2023-07-24T11:06:29;5.15;;;3.67;;
15814;SDS011;8008;50.024;8.172;2023-07-24T11:08:58;4.38;;;3.95;;
15814;SDS011;8008;50.024;8.172;2023-07-24T11:11:31;5.90;;;3.63;;
15814;SDS011;8008;50.024;8.172;2023-07-24T11:14:01;4.32;;;3.90;;
15814;SDS011;8008;50.024;8.172;2023-07-24T11:16:30;4.68;;;3.67;;
15814;SDS011;8008;50.024;8.172;2023-07-24T11:19:00;9.13;;;6.80;;
15814;SDS011;8008;50.024;8.172;2023-07-24T11:21:28;7.75;;;3.70;;
15814;SDS011;8008;50.024;8.172;2023-07-24T11:23:57;5.95;;;3.28;;
15814;SDS011;8008;50.024;8.172;2023-07-24T11:26:25;5.05;;;3.80;;
15814;SDS011;8008;50.024;8.172;2023-07-24T11:28:55;4.45;;;3.78;;
15814;SDS011;8008;50.024;8.172;2023-07-24T11:31:23;4.15;;;3.70;;
15814;SDS011;8008;50.024;8.172;2023-07-24T11:33:52;5.15;;;3.55;;
15814;SDS011;8008;50.024;8.172;2023-07-24T11:36:20;6.65;;;3.67;;
15814;SDS011;8008;50.024;8.172;2023-07-24T11:38:49;4.95;;;3.67;;
15814;SDS011;8008;50.024;8.172;2023-07-24T11:41:17;3.63;;;3.33;;
15814;SDS011;8008;50.024;8.172;2023-07-24T11:43:45;4.25;;;3.67;;
15814;SDS011;8008;50.024;8.172;2023-07-24T11:46:25;5.38;;;3.55;;
15814;SDS011;8008;50.024;8.172;2023-07-24T11:48:55;4.57;;;3.70;;
15814;SDS011;8008;50.024;8.172;2023-07-24T11:51:24;4.75;;;3.70;;
15814;SDS011;8008;50.024;8.172;2023-07-24T11:54:03;4.57;;;3.67;;
15814;SDS011;8008;50.024;8.172;2023-07-24T11:56:33;6.57;;;3.47;;
15814;SDS011;8008;50.024;8.172;2023-07-24T11:59:08;4.13;;;3.50;;
15814;SDS011;8008;50.024;8.172;2023-07-24T12:01:38;3.80;;;3.42;;
15814;SDS011;8008;50.024;8.172;2023-07-24T12:04:06;4.72;;;3.40;;
15814;SDS011;8008;50.024;8.172;2023-07-24T12:06:35;5.25;;;3.13;;
15814;SDS011;8008;50.024;8.172;2023-07-24T12:09:04;5.45;;;2.90;;
15814;SDS011;8008;50.024;8.172;2023-07-24T12:11:33;5.15;;;3.40;;
15814;SDS011;8008;50.024;8.172;2023-07-24T12:14:06;4.15;;;3.67;;
15814;SDS011;8008;50.024;8.172;2023-07-24T12:16:34;5.00;;;3.40;;
15814;SDS011;8008;50.024;8.172;2023-07-24T12:19:03;3.90;;;3.33;;
15814;SDS011;8008;50.024;8.172;2023-07-24T12:21:32;4.50;;;3.20;;
15814;SDS011;8008;50.024;8.172;2023-07-24T12:24:00;5.88;;;3.47;;
15814;SDS011;8008;50.024;8.172;2023-07-24T12:26:28;3.72;;;3.33;;
15814;SDS011;8008;50.024;8.172;2023-07-24T12:28:56;5.25;;;3.42;;
15814;SDS011;8008;50.024;8.172;2023-07-24T12:31:26;6.10;;;3.55;;
15814;SDS011;8008;50.024;8.172;2023-07-24T12:33:55;3.55;;;2.92;;
15814;SDS011;8008;50.024;8.172;2023-07-24T12:36:25;4.07;;;3.60;;
15814;SDS011;8008;50.024;8.172;2023-07-24T12:38:53;4.53;;;3.78;;
15814;SDS011;8008;50.024;8.172;2023-07-24T12:41:21;6.85;;;3.60;;
15814;SDS011;8008;50.024;8.172;2023-07-24T12:43:49;4.28;;;3.58;;
15814;SDS011;8008;50.024;8.172;2023-07-24T12:46:17;6.63;;;3.60;;
15814;SDS011;8008;50.024;8.172;2023-07-24T12:48:45;3.92;;;3.38;;
15814;SDS011;8008;50.024;8.172;2023-07-24T12:51:13;3.67;;;3.35;;
15814;SDS011;8008;50.024;8.172;2023-07-24T12:53:42;4.32;;;3.20;;
15814;SDS011;8008;50.024;8.172;2023-07-24T12:56:25;4.97;;;3.25;;
15814;SDS011;8008;50.024;8.172;2023-07-24T12:58:54;3.83;;;2.90;;
15814;SDS011;8008;50.024;8.172;2023-07-24T13:01:22;3.10;;;2.78;;
15814;SDS011;8008;50.024;8.172;2023-07-24T13:03:50;5.40;;;3.33;;
15814;SDS011;8008;50.024;8.172;2023-07-24T13:06:18;3.58;;;3.28;;
15814;SDS011;8008;50.024;8.172;2023-07-24T13:08:47;3.70;;;3.30;;
15814;SDS011;8008;50.024;8.172;2023-07-24T13:11:16;4.15;;;3.00;;
15814;SDS011;8008;50.024;8.172;2023-07-24T13:13:44;3.20;;;2.90;;
15814;SDS011;8008;50.024;8.172;2023-07-24T13:16:12;3.17;;;2.88;;
15814;SDS011;8008;50.024;8.172;2023-07-24T13:18:40;3.80;;;3.10;;
15814;SDS011;8008;50.024;8.172;2023-07-24T13:21:08;4.18;;;2.85;;
15814;SDS011;8008;50.024;8.172;2023-07-24T13:23:36;5.35;;;2.92;;
15814;SDS011;8008;50.024;8.172;2023-07-24T13:26:05;3.50;;;3.20;;
15814;SDS011;8008;50.024;8.172;2023-07-24T13:28:34;3.70;;;3.22;;
15814;SDS011;8008;50.024;8.172;2023-07-24T13:31:10;19.02;;;3.50;;
15814;SDS011;8008;50.024;8.172;2023-07-24T13:33:39;4.15;;;3.20;;
15814;SDS011;8008;50.024;8.172;2023-07-24T13:36:07;4.80;;;3.10;;
15814;SDS011;8008;50.024;8.172;2023-07-24T13:38:35;3.72;;;3.25;;
15814;SDS011;8008;50.024;8.172;2023-07-24T13:41:03;3.80;;;3.15;;
15814;SDS011;8008;50.024;8.172;2023-07-24T13:43:33;4.80;;;3.30;;
15814;SDS011;8008;50.024;8.172;2023-07-24T13:46:01;6.03;;;3.67;;
15814;SDS011;8008;50.024;8.172;2023-07-24T13:48:30;3.67;;;3.00;;
15814;SDS011;8008;50.024;8.172;2023-07-24T13:50:58;4.25;;;3.45;;
15814;SDS011;8008;50.024;8.172;2023-07-24T13:53:26;6.43;;;3.70;;
15814;SDS011;8008;50.024;8.172;2023-07-24T13:55:54;4.20;;;3.80;;
15814;SDS011;8008;50.024;8.172;2023-07-24T13:58:23;4.72;;;3.80;;
15814;SDS011;8008;50.024;8.172;2023-07-24T14:00:51;4.18;;;3.28;;
15814;SDS011;8008;50.024;8.172;2023-07-24T14:03:19;5.30;;;3.55;;
15814;SDS011;8008;50.024;8.172;2023-07-24T14:05:47;5.93;;;3.78;;
15814;SDS011;8008;50.024;8.172;2023-07-24T14:08:15;7.05;;;3.60;;
15814;SDS011;8008;50.024;8.172;2023-07-24T14:10:43;5.07;;;3.55;;
15814;SDS011;8008;50.024;8.172;2023-07-24T14:13:11;6.43;;;3.83;;
15814;SDS011;8008;50.024;8.172;2023-07-24T14:15:40;4.20;;;3.53;;
15814;SDS011;8008;50.024;8.172;2023-07-24T14:18:08;6.20;;;3.30;;
15814;SDS011;8008;50.024;8.172;2023-07-24T14:20:36;3.67;;;3.22;;
15814;SDS011;8008;50.024;8.172;2023-07-24T14:23:09;4.68;;;3.45;;
15814;SDS011;8008;50.024;8.172;2023-07-24T14:25:37;3.30;;;3.00;;
15814;SDS011;8008;50.024;8.172;2023-07-24T14:28:05;3.10;;;2.80;;
15814;SDS011;8008;50.024;8.172;2023-07-24T14:30:33;3.60;;;2.78;;
15814;SDS011;8008;50.024;8.172;2023-07-24T14:33:02;3.47;;;2.97;;
15814;SDS011;8008;50.024;8.172;2023-07-24T14:35:30;3.25;;;2.95;;
15814;SDS011;8008;50.024;8.172;2023-07-24T14:37:58;2.60;;;2.40;;
15814;SDS011;8008;50.024;8.172;2023-07-24T14:40:26;2.88;;;1.95;;
15814;SDS011;8008;50.024;8.172;2023-07-24T14:42:54;2.00;;;1.90;;
15814;SDS011;8008;50.024;8.172;2023-07-24T14:45:23;3.75;;;2.13;;
15814;SDS011;8008;50.024;8.172;2023-07-24T14:47:52;2.00;;;1.90;;
15814;SDS011;8008;50.024;8.172;2023-07-24T14:50:21;3.75;;;2.00;;
15814;SDS011;8008;50.024;8.172;2023-07-24T14:52:49;2.08;;;1.90;;
15814;SDS011;8008;50.024;8.172;2023-07-24T14:55:17;1.88;;;1.67;;
15814;SDS011;8008;50.024;8.172;2023-07-24T14:57:45;3.22;;;1.73;;
15814;SDS011;8008;50.024;8.172;2023-07-24T15:00:13;1.85;;;1.63;;
15814;SDS011;8008;50.024;8.172;2023-07-24T15:02:42;1.40;;;1.30;;
15814;SDS011;8008;50.024;8.172;2023-07-24T15:05:10;1.30;;;1.20;;
15814;SDS011;8008;50.024;8.172;2023-07-24T15:07:39;2.85;;;1.10;;
15814;SDS011;8008;50.024;8.172;2023-07-24T15:10:07;1.13;;;1.10;;
15814;SDS011;8008;50.024;8.172;2023-07-24T15:12:36;1.00;;;1.00;;
15814;SDS011;8008;50.024;8.172;2023-07-24T15:15:04;1.10;;;1.10;;
15814;SDS011;8008;50.024;8.172;2023-07-24T15:17:33;1.30;;;1.20;;
15814;SDS011;8008;50.024;8.172;2023-07-24T15:20:01;1.88;;;1.00;;
15814;SDS011;8008;50.024;8.172;2023-07-24T15:22:29;1.50;;;1.40;;
15814;SDS011;8008;50.024;8.172;2023-07-24T15:24:58;1.67;;;1.05;;
15814;SDS011;8008;50.024;8.172;2023-07-24T15:27:26;0.90;;;0.85;;
15814;SDS011;8008;50.024;8.172;2023-07-24T15:29:54;1.30;;;1.20;;
15814;SDS011;8008;50.024;8.172;2023-07-24T15:32:22;1.30;;;1.20;;
15814;SDS011;8008;50.024;8.172;2023-07-24T15:34:50;1.33;;;1.23;;
15814;SDS011;8008;50.024;8.172;2023-07-24T15:37:18;1.33;;;1.23;;
15814;SDS011;8008;50.024;8.172;2023-07-24T15:39:46;1.52;;;1.40;;
15814;SDS011;8008;50.024;8.172;2023-07-24T15:42:15;2.75;;;1.02;;
15814;SDS011;8008;50.024;8.172;2023-07-24T15:44:43;1.20;;;1.10;;
15814;SDS011;8008;50.024;8.172;2023-07-24T15:47:11;1.02;;;1.02;;
15814;SDS011;8008;50.024;8.172;2023-07-24T15:49:39;1.30;;;1.20;;
15814;SDS011;8008;50.024;8.172;2023-07-24T15:52:07;1.85;;;1.20;;
15814;SDS011;8008;50.024;8.172;2023-07-24T15:54:35;1.00;;;1.00;;
15814;SDS011;8008;50.024;8.172;2023-07-24T15:57:03;1.20;;;1.20;;
15814;SDS011;8008;50.024;8.172;2023-07-24T15:59:33;1.35;;;1.25;;
15814;SDS011;8008;50.024;8.172;2023-07-24T16:02:00;1.40;;;1.23;;
15814;SDS011;8008;50.024;8.172;2023-07-24T16:04:28;1.60;;;1.50;;
15814;SDS011;8008;50.024;8.172;2023-07-24T16:06:56;1.50;;;1.40;;
15814;SDS011;8008;50.024;8.172;2023-07-24T16:09:24;1.40;;;1.30;;
15814;SDS011;8008;50.024;8.172;2023-07-24T16:11:52;2.22;;;1.45;;
15814;SDS011;8008;50.024;8.172;2023-07-24T16:14:20;1.70;;;1.60;;
15814;SDS011;8008;50.024;8.172;2023-07-24T16:16:49;1.98;;;1.50;;
15814;SDS011;8008;50.024;8.172;2023-07-24T16:19:18;1.63;;;1.50;;
15814;SDS011;8008;50.024;8.172;2023-07-24T16:21:48;2.05;;;1.50;;
15814;SDS011;8008;50.024;8.172;2023-07-24T16:24:17;1.67;;;1.50;;
15814;SDS011;8008;50.024;8.172;2023-07-24T16:26:46;1.58;;;1.48;;
15814;SDS011;8008;50.024;8.172;2023-07-24T16:29:15;1.50;;;1.40;;
15814;SDS011;8008;50.024;8.172;2023-07-24T16:31:43;1.65;;;1.55;;
15814;SDS011;8008;50.024;8.172;2023-07-24T16:34:12;1.90;;;1.60;;
15814;SDS011;8008;50.024;8.172;2023-07-24T16:36:41;4.10;;;1.70;;
15814;SDS011;8008;50.024;8.172;2023-07-24T16:39:10;2.22;;;1.45;;
15814;SDS011;8008;50.024;8.172;2023-07-24T16:41:38;2.58;;;1.60;;
15814;SDS011;8008;50.024;8.172;2023-07-24T16:44:08;1.70;;;1.60;;
15814;SDS011;8008;50.024;8.172;2023-07-24T16:46:40;2.00;;;1.80;;
15814;SDS011;8008;50.024;8.172;2023-07-24T16:49:08;2.13;;;1.80;;
15814;SDS011;8008;50.024;8.172;2023-07-24T16:51:38;4.18;;;1.90;;
15814;SDS011;8008;50.024;8.172;2023-07-24T16:54:06;2.97;;;2.13;;
15814;SDS011;8008;50.024;8.172;2023-07-24T16:56:34;2.17;;;1.67;;
15814;SDS011;8008;50.024;8.172;2023-07-24T16:59:02;2.08;;;1.65;;
15814;SDS011;8008;50.024;8.172;2023-07-24T17:01:29;1.75;;;1.65;;
15814;SDS011;8008;50.024;8.172;2023-07-24T17:03:58;2.08;;;1.80;;
15814;SDS011;8008;50.024;8.172;2023-07-24T17:06:27;3.22;;;1.83;;
15814;SDS011;8008;50.024;8.172;2023-07-24T17:08:56;1.60;;;1.50;;
15814;SDS011;8008;50.024;8.172;2023-07-24T17:11:24;1.70;;;1.60;;
15814;SDS011;8008;50.024;8.172;2023-07-24T17:13:52;2.03;;;1.77;;
15814;SDS011;8008;50.024;8.172;2023-07-24T17:16:20;2.05;;;1.70;;
15814;SDS011;8008;50.024;8.172;2023-07-24T17:18:48;2.20;;;1.80;;
15814;SDS011;8008;50.024;8.172;2023-07-24T17:21:20;1.90;;;1.80;;
15814;SDS011;8008;50.024;8.172;2023-07-24T17:23:48;2.25;;;1.80;;
15814;SDS011;8008;50.024;8.172;2023-07-24T17:26:17;1.85;;;1.75;;
15814;SDS011;8008;50.024;8.172;2023-07-24T17:28:45;2.95;;;1.65;;
15814;SDS011;8008;50.024;8.172;2023-07-24T17:31:13;4.10;;;1.67;;
15814;SDS011;8008;50.024;8.172;2023-07-24T17:33:41;2.20;;;2.00;;
15814;SDS011;8008;50.024;8.172;2023-07-24T17:36:09;2.45;;;1.85;;
15814;SDS011;8008;50.024;8.172;2023-07-24T17:38:37;1.75;;;1.65;;
15814;SDS011;8008;50.024;8.172;2023-07-24T17:41:05;2.25;;;1.80;;
15814;SDS011;8008;50.024;8.172;2023-07-24T17:43:36;1.77;;;1.60;;
15814;SDS011;8008;50.024;8.172;2023-07-24T17:46:04;1.95;;;1.65;;
15814;SDS011;8008;50.024;8.172;2023-07-24T17:48:32;3.70;;;1.65;;
15814;SDS011;8008;50.024;8.172;2023-07-24T17:51:00;2.15;;;1.70;;
15814;SDS011;8008;50.024;8.172;2023-07-24T17:53:28;1.48;;;1.38;;
15814;SDS011;8008;50.024;8.172;2023-07-24T17:55:56;1.50;;;1.40;;
15814;SDS011;8008;50.024;8.172;2023-07-24T17:58:24;2.75;;;1.45;;
15814;SDS011;8008;50.024;8.172;2023-07-24T18:00:53;2.08;;;1.17;;
15814;SDS011;8008;50.024;8.172;2023-07-24T18:03:21;2.50;;;1.65;;
15814;SDS011;8008;50.024;8.172;2023-07-24T18:05:49;1.67;;;1.40;;
15814;SDS011;8008;50.024;8.172;2023-07-24T18:08:17;1.60;;;1.50;;
15814;SDS011;8008;50.024;8.172;2023-07-24T18:10:46;1.42;;;1.30;;
15814;SDS011;8008;50.024;8.172;2023-07-24T18:13:14;1.40;;;1.30;;